Time;durP1;ratioP1;P1;durP2;ratioP2;P2;SDS_P1;SDS_P2;PMS_P1;PMS_P2;Temp;Humidity;BMP_temperature;BMP_pressure;BME280_temperature;BME280_humidity;BME280_pressure;Samples;Min_cycle;Max_cycle;Signal;HPM_P1;HPM_P2
2022/01/13 00:00:32;;;;;;;;;;;;;;;2.97;100.00;148194.91;5060244;28;20011;-69
2022/01/13 00:02:58;;;;;;;;;;;;;;;2.94;100.00;148189.75;5054155;28;19916;-69
2022/01/13 00:05:28;;;;;;;;;;;;;;;2.98;100.00;148198.75;5050300;28;19913;-69
2022/01/13 00:07:55;;;;;;;;;;;;;;;2.96;100.00;148193.63;5058041;28;19916;-69
2022/01/13 00:10:21;;;;;;;;;;;;;;;2.97;100.00;148194.91;5054461;28;20165;-69
2022/01/13 00:12:46;;;;;;;;;;;;;;;2.93;100.00;148187.19;5051993;28;19913;-69
2022/01/13 00:25:19;;;;;;;;;;;;;;;2.99;100.00;148200.03;5115517;27;20021;-69
2022/01/13 00:27:52;;;;;;;;;;;;;;;3.00;100.00;148202.59;5120048;27;19919;-69
2022/01/13 00:30:18;;;;;;;;;;;;;;;2.96;100.00;148193.63;5116716;27;19983;-69
2022/01/13 00:32:45;;;;;;;;;;;;;;;2.99;100.00;148201.31;5108638;27;19919;-69
2022/01/13 00:35:11;;;;;;;;;;;;;;;3.02;100.00;148207.75;5122948;27;20442;-69
2022/01/13 00:37:37;;;;;;;;;;;;;;;3.00;100.00;148202.59;5114818;27;19917;-69
2022/01/13 00:40:04;;;;;;;;;;;;;;;3.00;100.00;148202.59;5121897;27;19958;-69
2022/01/13 00:42:29;;;;;;;;;;;;;;;3.00;100.00;148203.88;5116727;27;20405;-69
2022/01/13 00:44:54;;;;;;;;;;;;;;;3.03;100.00;148210.31;5116002;27;19950;-69
2022/01/13 00:47:20;;;;;;;;;;;;;;;3.01;100.00;148205.19;5109165;27;20620;-69
2022/01/13 00:49:46;;;;;;;;;;;;;;;3.03;100.00;148210.31;5120529;27;19911;-69
2022/01/13 00:52:11;;;;;;;;;;;;;;;3.01;100.00;148205.19;5116530;27;19911;-69
2022/01/13 00:54:36;;;;;;;;;;;;;;;3.02;100.00;148207.75;5123583;27;19917;-69
2022/01/13 00:57:02;;;;;;;;;;;;;;;3.03;100.00;148210.31;5109605;27;19995;-69
2022/01/13 00:59:27;;;;;;;;;;;;;;;3.03;100.00;148211.66;5114142;27;19911;-69
2022/01/13 01:01:54;;;;;;;;;;;;;;;3.04;100.00;148212.94;5118232;27;19968;-69
2022/01/13 01:04:20;;;;;;;;;;;;;;;3.01;100.00;148205.19;5118944;27;19919;-69
2022/01/13 01:06:45;;;;;;;;;;;;;;;3.04;100.00;148212.94;5121367;27;19915;-69
2022/01/13 01:09:17;;;;;;;;;;;;;;;3.04;100.00;148214.22;5122639;27;20019;-69
2022/01/13 01:11:45;;;;;;;;;;;;;;;3.06;100.00;148218.06;5116785;27;19918;-69
2022/01/13 01:14:12;;;;;;;;;;;;;;;3.08;100.00;148223.22;5117971;27;19912;-69
2022/01/13 01:16:38;;;;;;;;;;;;;;;3.06;100.00;148218.06;5120356;27;19919;-69
2022/01/13 01:19:07;;;;;;;;;;;;;;;3.08;100.00;148224.50;5115907;27;19971;-69
2022/01/13 01:21:49;;;;;;;;;;;;;;;3.08;100.00;148223.22;5121310;27;19911;-69
2022/01/13 01:31:52;;;;;;;;;;;;;;;3.12;100.00;148233.47;5113683;27;20034;-69
2022/01/13 01:37:05;;;;;;;;;;;;;;;3.10;100.00;148229.63;5118104;27;19926;-69
2022/01/13 01:39:31;;;;;;;;;;;;;;;3.11;100.00;148230.91;5116978;27;19919;-69
2022/01/13 01:41:56;;;;;;;;;;;;;;;3.12;100.00;148234.78;5117247;27;20067;-69
2022/01/13 01:44:30;;;;;;;;;;;;;;;3.12;100.00;148233.47;5117238;27;19998;-69
2022/01/13 01:46:55;;;;;;;;;;;;;;;3.11;100.00;148230.91;5116528;27;19950;-69
2022/01/13 01:49:24;;;;;;;;;;;;;;;3.10;100.00;148229.63;5117074;27;19954;-69
2022/01/13 01:51:51;;;;;;;;;;;;;;;3.15;100.00;148241.19;5117614;27;20035;-69
2022/01/13 01:54:16;;;;;;;;;;;;;;;3.17;100.00;148246.38;5118315;27;20701;-69
2022/01/13 01:56:43;;;;;;;;;;;;;;;3.14;100.00;148239.91;5119070;27;20018;-69
2022/01/13 01:59:12;;;;;;;;;;;;;;;3.16;100.00;148243.81;5117540;27;19919;-69
2022/01/13 02:01:38;;;;;;;;;;;;;;;3.18;100.00;148248.94;5128944;22;19958;-69
2022/01/13 02:04:03;;;;;;;;;;;;;;;3.16;100.00;148243.81;5034080;28;20200;-69
2022/01/13 02:06:28;;;;;;;;;;;;;;;3.19;100.00;148251.53;5035367;28;20595;-69
2022/01/13 02:08:53;;;;;;;;;;;;;;;3.17;100.00;148247.66;5032156;28;20007;-69
2022/01/13 02:11:20;;;;;;;;;;;;;;;3.17;100.00;148246.38;5037439;28;20080;-69
2022/01/13 02:13:50;;;;;;;;;;;;;;;3.19;100.00;148251.53;5030871;28;19913;-69
2022/01/13 02:18:59;;;;;;;;;;;;;;;3.16;100.00;148243.81;5026011;28;19916;-69
2022/01/13 02:21:25;;;;;;;;;;;;;;;3.17;100.00;148246.38;5034776;28;19935;-69
2022/01/13 02:23:51;;;;;;;;;;;;;;;3.21;100.00;148256.66;5029337;28;20243;-69
2022/01/13 02:26:16;;;;;;;;;;;;;;;3.22;100.00;148259.22;5028425;28;19983;-69
2022/01/13 02:28:43;;;;;;;;;;;;;;;3.21;100.00;148257.94;5037898;28;20102;-69
2022/01/13 02:31:08;;;;;;;;;;;;;;;3.20;100.00;148254.09;5026760;28;20046;-69
2022/01/13 02:33:35;;;;;;;;;;;;;;;3.22;100.00;148260.50;5031576;28;20360;-69
2022/01/13 02:36:00;;;;;;;;;;;;;;;3.23;100.00;148261.81;5032092;28;20054;-69
2022/01/13 02:38:25;;;;;;;;;;;;;;;3.22;100.00;148259.22;5032172;28;19977;-69
2022/01/13 02:40:52;;;;;;;;;;;;;;;3.22;100.00;148259.22;5029407;28;19926;-69
2022/01/13 02:43:17;;;;;;;;;;;;;;;3.22;100.00;148260.50;5030443;28;19923;-69
2022/01/13 02:45:59;;;;;;;;;;;;;;;3.22;100.00;148259.22;5030392;28;19913;-69
2022/01/13 02:50:51;;;;;;;;;;;;;;;3.22;100.00;148259.22;5030491;28;19913;-69
2022/01/13 02:53:16;;;;;;;;;;;;;;;3.19;100.00;148252.81;5033319;28;19920;-69
2022/01/13 02:55:41;;;;;;;;;;;;;;;3.23;100.00;148263.09;5030704;28;20437;-69
2022/01/13 02:58:07;;;;;;;;;;;;;;;3.22;100.00;148259.22;5027863;28;19917;-69
2022/01/13 03:00:32;;;;;;;;;;;;;;;3.23;100.00;148261.81;5029052;28;19920;-69
2022/01/13 03:02:58;;;;;;;;;;;;;;;3.22;100.00;148260.50;5026748;28;19917;-69
2022/01/13 03:05:23;;;;;;;;;;;;;;;3.24;100.00;148264.38;5019598;28;21440;-69
2022/01/13 03:07:48;;;;;;;;;;;;;;;3.23;100.00;148261.81;5024108;28;20177;-68
2022/01/13 03:10:14;;;;;;;;;;;;;;;3.23;100.00;148261.81;5023266;28;19919;-68
2022/01/13 03:12:43;;;;;;;;;;;;;;;3.22;100.00;148259.22;5026483;28;20415;-68
2022/01/13 03:15:08;;;;;;;;;;;;;;;3.24;100.00;148264.38;5023948;28;19913;-68
2022/01/13 03:17:34;;;;;;;;;;;;;;;3.23;100.00;148261.81;5020073;28;21577;-68
2022/01/13 03:19:59;;;;;;;;;;;;;;;3.21;100.00;148256.66;5025617;28;20409;-68
2022/01/13 03:22:24;;;;;;;;;;;;;;;3.23;100.00;148263.09;5022991;28;19913;-69
2022/01/13 03:24:50;;;;;;;;;;;;;;;3.23;100.00;148261.81;5006945;28;19917;-68
2022/01/13 03:27:20;;;;;;;;;;;;;;;3.23;100.00;148263.09;5019990;28;19933;-73
2022/01/13 03:29:46;;;;;;;;;;;;;;;3.25;100.00;148266.94;5019585;28;20460;-68
2022/01/13 03:32:12;;;;;;;;;;;;;;;3.24;100.00;148265.66;5021055;28;19919;-68
2022/01/13 03:34:37;;;;;;;;;;;;;;;3.23;100.00;148261.81;5020442;28;19925;-70
2022/01/13 03:37:03;;;;;;;;;;;;;;;3.22;100.00;148259.22;5023214;28;20108;-68
2022/01/13 03:39:28;;;;;;;;;;;;;;;3.22;100.00;148259.22;5028228;28;19983;-68
2022/01/13 03:41:53;;;;;;;;;;;;;;;3.25;100.00;148266.94;5021743;28;20347;-68
2022/01/13 03:44:27;;;;;;;;;;;;;;;3.22;100.00;148260.50;5019005;28;20055;-68
2022/01/13 03:46:53;;;;;;;;;;;;;;;3.24;100.00;148264.38;5021635;28;19917;-69
2022/01/13 03:49:18;;;;;;;;;;;;;;;3.26;100.00;148269.50;5022648;28;19939;-68
2022/01/13 03:51:58;;;;;;;;;;;;;;;3.23;100.00;148261.81;5020333;28;19917;-68
2022/01/13 03:54:35;;;;;;;;;;;;;;;3.24;100.00;148264.38;5027024;28;20306;-68
2022/01/13 03:57:19;;;;;;;;;;;;;;;3.24;100.00;148265.66;5019841;28;20626;-68
2022/01/13 03:59:53;;;;;;;;;;;;;;;3.23;100.00;148263.09;5018639;28;20320;-68
2022/01/13 04:02:18;;;;;;;;;;;;;;;3.23;100.00;148261.81;5021535;28;19924;-68
2022/01/13 04:04:47;;;;;;;;;;;;;;;3.24;100.00;148264.38;5020567;28;19917;-68
2022/01/13 04:07:15;;;;;;;;;;;;;;;3.23;100.00;148261.81;5019951;28;19967;-68
2022/01/13 04:09:40;;;;;;;;;;;;;;;3.22;100.00;148259.22;5019899;28;19917;-68
2022/01/13 04:12:08;;;;;;;;;;;;;;;3.24;100.00;148264.38;5020098;28;20125;-68
2022/01/13 04:17:08;;;;;;;;;;;;;;;3.23;100.00;148263.09;5021214;28;19944;-68
2022/01/13 04:19:34;;;;;;;;;;;;;;;3.24;100.00;148264.38;5020798;28;20593;-68
2022/01/13 04:21:59;;;;;;;;;;;;;;;3.24;100.00;148264.38;5023018;28;19920;-68
2022/01/13 04:24:24;;;;;;;;;;;;;;;3.25;100.00;148266.94;5020926;28;19924;-68
2022/01/13 04:26:52;;;;;;;;;;;;;;;3.27;100.00;148272.13;5019494;28;20720;-68
2022/01/13 04:29:26;;;;;;;;;;;;;;;3.26;100.00;148269.50;5020648;28;19917;-69
2022/01/13 04:31:52;;;;;;;;;;;;;;;3.26;100.00;148269.50;5028002;28;19920;-68
2022/01/13 04:34:17;;;;;;;;;;;;;;;3.26;100.00;148269.50;5022986;28;19913;-68
2022/01/13 04:36:43;;;;;;;;;;;;;;;3.29;100.00;148275.97;5025000;28;20396;-68
2022/01/13 04:39:09;;;;;;;;;;;;;;;3.27;100.00;148272.13;5024415;28;19920;-68
2022/01/13 04:41:37;;;;;;;;;;;;;;;3.28;100.00;148274.69;5005545;28;19916;-68
2022/01/13 04:44:05;;;;;;;;;;;;;;;3.26;100.00;148269.50;5024747;28;20074;-68
2022/01/13 04:46:31;;;;;;;;;;;;;;;3.28;100.00;148274.69;5026342;28;20015;-68
2022/01/13 04:48:56;;;;;;;;;;;;;;;3.29;100.00;148277.28;5022576;28;20425;-69
2022/01/13 04:51:21;;;;;;;;;;;;;;;3.29;100.00;148277.28;5024058;28;19993;-68
2022/01/13 04:53:47;;;;;;;;;;;;;;;3.28;100.00;148274.69;5026169;28;19913;-68
2022/01/13 04:56:16;;;;;;;;;;;;;;;3.28;100.00;148274.69;5023088;28;19909;-68
2022/01/13 04:58:41;;;;;;;;;;;;;;;3.30;100.00;148279.84;5028930;28;20065;-68
2022/01/13 05:01:06;;;;;;;;;;;;;;;3.28;100.00;148273.41;5027409;28;20134;-68
2022/01/13 05:03:32;;;;;;;;;;;;;;;3.29;100.00;148277.28;5020837;28;20483;-68
2022/01/13 05:05:57;;;;;;;;;;;;;;;3.31;100.00;148281.13;5034441;28;19916;-68
2022/01/13 05:08:22;;;;;;;;;;;;;;;3.31;100.00;148282.41;5022153;28;20055;-68
2022/01/13 05:10:48;;;;;;;;;;;;;;;3.29;100.00;148275.97;5022310;28;20308;-68
2022/01/13 05:13:13;;;;;;;;;;;;;;;3.30;100.00;148279.84;5024981;28;20361;-69
2022/01/13 05:15:41;;;;;;;;;;;;;;;3.28;100.00;148274.69;5022724;28;19912;-68
2022/01/13 05:21:02;;;;;;;;;;;;;;;3.27;100.00;148272.13;4939269;29;19945;-69
2022/01/13 05:23:27;;;;;;;;;;;;;;;3.30;100.00;148278.56;4937423;28;20427;-69
2022/01/13 05:25:53;;;;;;;;;;;;;;;3.26;100.00;148268.22;4938717;29;19939;-69
2022/01/13 05:28:18;;;;;;;;;;;;;;;3.23;100.00;148263.09;4933236;28;20141;-68
2022/01/13 05:30:43;;;;;;;;;;;;;;;3.28;100.00;148273.41;4931191;29;20079;-72
2022/01/13 05:33:08;;;;;;;;;;;;;;;3.23;100.00;148261.81;4941509;28;19922;-68
2022/01/13 05:35:36;;;;;;;;;;;;;;;3.26;100.00;148268.22;4943387;28;19922;-68
2022/01/13 05:38:01;;;;;;;;;;;;;;;3.24;100.00;148265.66;4938693;28;19990;-68
2022/01/13 05:40:27;;;;;;;;;;;;;;;3.22;100.00;148259.22;4941824;28;20380;-68
2022/01/13 05:42:52;;;;;;;;;;;;;;;3.22;100.00;148259.22;4929591;28;19914;-68
2022/01/13 05:45:20;;;;;;;;;;;;;;;3.26;100.00;148268.22;4939607;29;19914;-68
2022/01/13 05:47:46;;;;;;;;;;;;;;;3.20;100.00;148255.38;4940593;29;20211;-68
2022/01/13 05:50:12;;;;;;;;;;;;;;;3.20;100.00;148254.09;4939487;28;20397;-68
2022/01/13 05:52:38;;;;;;;;;;;;;;;3.22;100.00;148259.22;4930948;29;20221;-68
2022/01/13 05:55:04;;;;;;;;;;;;;;;3.24;100.00;148264.38;4930264;28;19971;-69
2022/01/13 05:57:30;;;;;;;;;;;;;;;3.24;100.00;148264.38;4957743;28;20151;-68
2022/01/13 05:59:55;;;;;;;;;;;;;;;3.22;100.00;148259.22;5020258;28;20254;-68
2022/01/13 06:02:20;;;;;;;;;;;;;;;3.21;100.00;148256.66;5017211;28;20424;-69
2022/01/13 06:04:46;;;;;;;;;;;;;;;3.17;100.00;148246.38;5020044;28;20268;-70
2022/01/13 06:07:11;;;;;;;;;;;;;;;3.18;100.00;148248.94;5028409;28;19921;-68
2022/01/13 06:09:36;;;;;;;;;;;;;;;3.19;100.00;148251.53;5021308;28;19920;-68
2022/01/13 06:12:03;;;;;;;;;;;;;;;3.20;100.00;148254.09;5026368;28;19992;-68
2022/01/13 06:14:28;;;;;;;;;;;;;;;3.16;100.00;148243.81;5022593;28;20230;-68
2022/01/13 06:16:54;;;;;;;;;;;;;;;3.14;100.00;148238.63;5021171;28;20364;-68
2022/01/13 06:19:19;;;;;;;;;;;;;;;3.19;100.00;148252.81;5018040;28;19924;-68
2022/01/13 06:21:44;;;;;;;;;;;;;;;3.15;100.00;148241.19;5016962;28;19988;-67
2022/01/13 06:24:10;;;;;;;;;;;;;;;3.12;100.00;148234.78;5026582;28;20372;-67
2022/01/13 06:26:35;;;;;;;;;;;;;;;3.13;100.00;148236.06;5019418;28;19945;-66
2022/01/13 06:29:00;;;;;;;;;;;;;;;3.17;100.00;148246.38;5019649;28;19917;-67
2022/01/13 06:31:25;;;;;;;;;;;;;;;3.12;100.00;148233.47;5018942;28;19913;-66
2022/01/13 06:33:51;;;;;;;;;;;;;;;3.13;100.00;148236.06;5019275;28;19913;-67
2022/01/13 06:36:16;;;;;;;;;;;;;;;3.08;100.00;148223.22;5020149;28;20443;-67
2022/01/13 06:38:42;;;;;;;;;;;;;;;3.06;100.00;148219.34;5019070;28;19944;-67
2022/01/13 06:41:07;;;;;;;;;;;;;;;3.05;100.00;148216.78;5019121;28;19913;-66
2022/01/13 06:43:33;;;;;;;;;;;;;;;-145.18;100.00;60484.78;5021402;28;20506;-67
2022/01/13 06:45:59;;;;;;;;;;;;;;;-145.18;100.00;60484.78;5019411;28;19920;-67
2022/01/13 06:48:24;;;;;;;;;;;;;;;3.08;100.00;148224.50;5019896;28;19917;-67
2022/01/13 06:50:49;;;;;;;;;;;;;;;-145.18;100.00;60484.78;5020692;28;20152;-68
2022/01/13 06:53:14;;;;;;;;;;;;;;;-145.18;100.00;60484.78;5018829;28;19992;-67
2022/01/13 06:55:40;;;;;;;;;;;;;;;-145.18;100.00;60484.78;5019119;28;19913;-67
2022/01/13 06:58:05;;;;;;;;;;;;;;;-145.18;100.00;60484.78;5019694;28;21632;-67
2022/01/13 07:00:32;;;;;;;;;;;;;;;-145.18;100.00;60484.78;5023937;28;20393;-67
2022/01/13 07:02:59;;;;;;;;;;;;;;;-145.18;100.00;60484.78;5017949;28;19994;-67
2022/01/13 07:05:24;;;;;;;;;;;;;;;-145.18;100.00;60484.78;5019368;28;19959;-67
2022/01/13 07:07:50;;;;;;;;;;;;;;;-145.18;100.00;60484.78;5020233;28;19925;-67
2022/01/13 07:10:15;;;;;;;;;;;;;;;-145.18;100.00;60484.78;5019300;28;19917;-67
2022/01/13 07:12:41;;;;;;;;;;;;;;;-145.18;100.00;60484.78;5020893;28;19917;-67
2022/01/13 07:15:07;;;;;;;;;;;;;;;-145.18;100.00;60484.78;5019294;28;19991;-67
2022/01/13 07:17:33;;;;;;;;;;;;;;;-145.18;100.00;60484.78;5020652;28;19908;-67
2022/01/13 07:19:58;;;;;;;;;;;;;;;-145.18;100.00;60484.78;5017713;28;19920;-70
2022/01/13 07:22:23;;;;;;;;;;;;;;;-145.18;100.00;60484.78;5020787;28;19963;-67
2022/01/13 07:24:49;;;;;;;;;;;;;;;-145.18;100.00;60484.78;5019031;28;19913;-67
2022/01/13 07:27:14;;;;;;;;;;;;;;;-145.18;100.00;60484.78;5019269;28;20455;-67
2022/01/13 07:29:42;;;;;;;;;;;;;;;-145.18;100.00;60484.78;5017009;28;19944;-67
2022/01/13 07:32:08;;;;;;;;;;;;;;;-145.18;100.00;60484.78;5018575;28;19924;-67
2022/01/13 07:34:33;;;;;;;;;;;;;;;-145.18;100.00;60484.78;5017836;28;19913;-68
2022/01/13 07:36:58;;;;;;;;;;;;;;;-145.18;100.00;60484.78;5018832;28;19921;-67
2022/01/13 07:39:24;;;;;;;;;;;;;;;-145.18;100.00;60484.78;5016662;28;19909;-67
2022/01/13 07:41:49;;;;;;;;;;;;;;;-145.18;100.00;60484.78;5019629;28;20016;-67
2022/01/13 07:44:17;;;;;;;;;;;;;;;-145.18;100.00;60484.78;5020985;28;20147;-67
2022/01/13 07:46:42;;;;;;;;;;;;;;;-145.18;100.00;60484.78;5019350;28;19921;-67
2022/01/13 07:49:07;;;;;;;;;;;;;;;-145.18;100.00;60484.78;5020566;28;20149;-67
2022/01/13 07:51:33;;;;;;;;;;;;;;;-145.18;100.00;60484.78;5030134;28;19913;-67
2022/01/13 07:53:58;;;;;;;;;;;;;;;-145.18;100.00;60484.78;5020426;28;20387;-67
2022/01/13 07:56:23;;;;;;;;;;;;;;;-145.18;100.00;60484.78;5021115;28;20284;-67
2022/01/13 07:58:49;;;;;;;;;;;;;;;-145.18;100.00;60484.78;5027106;28;19993;-67
2022/01/13 08:01:14;;;;;;;;;;;;;;;-145.18;100.00;60484.78;5017959;28;19921;-67
2022/01/13 08:03:39;;;;;;;;;;;;;;;-145.18;100.00;60484.78;5017985;28;19917;-67
2022/01/13 08:06:05;;;;;;;;;;;;;;;-145.18;100.00;60484.78;5018241;28;20426;-67
2022/01/13 08:08:32;;;;;;;;;;;;;;;-145.18;100.00;60484.78;5028536;28;19917;-67
2022/01/13 08:10:57;;;;;;;;;;;;;;;-145.18;100.00;60484.78;5021569;28;19919;-67
2022/01/13 08:13:22;;;;;;;;;;;;;;;-145.18;100.00;60484.78;5020204;28;19917;-67
2022/01/13 08:15:52;;;;;;;;;;;;;;;-145.18;100.00;60484.78;5022620;28;20373;-67
2022/01/13 08:21:01;;;;;;;;;;;;;;;-145.18;100.00;60484.78;5021842;28;19920;-68
2022/01/13 08:23:26;;;;;;;;;;;;;;;-145.18;100.00;60484.78;5021580;28;20397;-67
2022/01/13 08:25:51;;;;;;;;;;;;;;;-145.18;100.00;60484.78;5033168;28;20178;-67
2022/01/13 08:28:17;;;;;;;;;;;;;;;-145.18;100.00;60484.78;5021317;28;19983;-67
2022/01/13 08:30:42;;;;;;;;;;;;;;;-145.18;100.00;60484.78;5021463;28;20003;-67
2022/01/13 08:33:07;;;;;;;;;;;;;;;-145.18;100.00;60484.78;5022079;28;20116;-67
2022/01/13 08:35:33;;;;;;;;;;;;;;;-145.18;100.00;60484.78;5021989;28;20365;-67
2022/01/13 08:38:05;;;;;;;;;;;;;;;-145.18;100.00;60484.78;5021252;28;19982;-67
2022/01/13 08:40:34;;;;;;;;;;;;;;;-145.18;100.00;60484.78;5021590;28;19983;-67
2022/01/13 08:42:59;;;;;;;;;;;;;;;-145.18;100.00;60484.78;5023175;28;20011;-67
2022/01/13 08:45:25;;;;;;;;;;;;;;;-145.18;100.00;60484.78;5026005;28;20016;-68
2022/01/13 08:47:50;;;;;;;;;;;;;;;-145.18;100.00;60484.78;5022980;28;20385;-69
2022/01/13 08:50:15;;;;;;;;;;;;;;;-145.18;100.00;60484.78;5026433;28;20232;-68
2022/01/13 08:52:41;;;;;;;;;;;;;;;-145.18;100.00;60484.78;5021989;28;20089;-68
2022/01/13 08:55:07;;;;;;;;;;;;;;;-145.18;100.00;60484.78;5021685;28;20150;-68
2022/01/13 08:57:34;;;;;;;;;;;;;;;-145.18;100.00;60484.78;5021756;28;19923;-68
2022/01/13 08:59:59;;;;;;;;;;;;;;;-145.18;100.00;60484.78;5021149;28;20333;-69
2022/01/13 09:02:24;;;;;;;;;;;;;;;-145.18;100.00;60484.78;5020191;28;20029;-68
2022/01/13 09:04:50;;;;;;;;;;;;;;;-145.18;100.00;60484.78;5021185;28;19917;-69
2022/01/13 09:07:15;;;;;;;;;;;;;;;-145.18;100.00;60484.78;5021474;28;19940;-68
2022/01/13 09:09:41;;;;;;;;;;;;;;;-145.18;100.00;60484.78;5021573;28;19913;-68
2022/01/13 09:12:06;;;;;;;;;;;;;;;-145.18;100.00;60484.78;5021249;28;20185;-68
2022/01/13 09:14:32;;;;;;;;;;;;;;;-145.18;100.00;60484.78;5020458;28;20053;-68
2022/01/13 09:16:58;;;;;;;;;;;;;;;-145.18;100.00;60484.78;5021199;28;19917;-68
2022/01/13 09:19:23;;;;;;;;;;;;;;;-145.18;100.00;60484.78;5018527;28;19913;-68
2022/01/13 09:21:49;;;;;;;;;;;;;;;-145.18;100.00;60484.78;5021722;28;20166;-68
2022/01/13 09:24:16;;;;;;;;;;;;;;;-145.18;100.00;60484.78;5020583;28;20003;-68
2022/01/13 09:26:41;;;;;;;;;;;;;;;-145.18;100.00;60484.78;5035933;28;20336;-68
2022/01/13 09:29:07;;;;;;;;;;;;;;;-145.18;100.00;60484.78;5021266;28;20261;-68
2022/01/13 09:31:34;;;;;;;;;;;;;;;-145.18;100.00;60484.78;5020035;28;20570;-68
2022/01/13 09:34:01;;;;;;;;;;;;;;;-145.18;100.00;60484.78;5020496;28;19917;-68
2022/01/13 09:36:27;;;;;;;;;;;;;;;-145.18;100.00;60484.78;5020885;28;19971;-68
2022/01/13 09:38:52;;;;;;;;;;;;;;;-145.18;100.00;60484.78;5020913;28;20150;-68
2022/01/13 09:41:18;;;;;;;;;;;;;;;-145.18;100.00;60484.78;5021047;28;19939;-68
2022/01/13 09:43:44;;;;;;;;;;;;;;;-145.18;100.00;60484.78;5021483;28;19913;-68
2022/01/13 09:46:10;;;;;;;;;;;;;;;-145.18;100.00;60484.78;5020869;28;19921;-68
2022/01/13 09:48:37;;;;;;;;;;;;;;;-145.18;100.00;60484.78;5020758;28;19921;-68
2022/01/13 09:51:03;;;;;;;;;;;;;;;-145.18;100.00;60484.78;5015321;28;19913;-68
2022/01/13 09:53:28;;;;;;;;;;;;;;;-145.18;100.00;60484.78;5020880;28;20363;-68
2022/01/13 09:55:53;;;;;;;;;;;;;;;-145.18;100.00;60484.78;5019995;28;19913;-68
2022/01/13 09:58:19;;;;;;;;;;;;;;;-145.18;100.00;60484.78;5019953;28;19933;-69
2022/01/13 10:00:44;;;;;;;;;;;;;;;-145.18;100.00;60484.78;5020375;28;19979;-68
2022/01/13 10:03:11;;;;;;;;;;;;;;;-145.18;100.00;60484.78;5019988;28;19964;-68
2022/01/13 10:05:46;;;;;;;;;;;;;;;-145.18;100.00;60484.78;5023387;28;19920;-68
2022/01/13 10:08:11;;;;;;;;;;;;;;;-145.18;100.00;60484.78;5020775;28;19925;-68
2022/01/13 10:10:36;;;;;;;;;;;;;;;-145.18;100.00;60484.78;5020596;28;19990;-68
2022/01/13 10:13:08;;;;;;;;;;;;;;;-145.18;100.00;60484.78;5020493;28;19913;-68
2022/01/13 10:18:44;;;;;;;;;;;;;;;-145.18;100.00;60484.78;5006826;28;19920;-68
2022/01/13 10:21:13;;;;;;;;;;;;;;;-145.18;100.00;60484.78;5020015;28;19913;-69
2022/01/13 10:23:58;;;;;;;;;;;;;;;-145.18;100.00;60484.78;5020096;28;19974;-68
2022/01/13 10:26:23;;;;;;;;;;;;;;;-145.18;100.00;60484.78;5011193;28;20036;-68
2022/01/13 10:28:52;;;;;;;;;;;;;;;-145.18;100.00;60484.78;5020386;28;19929;-68
2022/01/13 10:31:17;;;;;;;;;;;;;;;-145.18;100.00;60484.78;5018808;28;19917;-68
2022/01/13 10:33:42;;;;;;;;;;;;;;;-145.18;100.00;60484.78;5019318;28;20129;-68
2022/01/13 10:36:10;;;;;;;;;;;;;;;-145.18;100.00;60484.78;5020335;28;20178;-68
2022/01/13 10:39:05;;;;;;;;;;;;;;;-145.18;100.00;60484.78;5019876;28;19943;-68
2022/01/13 10:41:49;;;;;;;;;;;;;;;-145.18;100.00;60484.78;4957734;28;19914;-68
2022/01/13 10:44:18;;;;;;;;;;;;;;;-145.18;100.00;60484.78;4956127;28;20357;-68
2022/01/13 10:47:00;;;;;;;;;;;;;;;-145.18;100.00;60484.78;4956327;28;19914;-68
2022/01/13 10:49:30;;;;;;;;;;;;;;;-145.18;100.00;60484.78;4943700;28;19918;-68
2022/01/13 10:52:15;;;;;;;;;;;;;;;-145.18;100.00;60484.78;4960325;28;20706;-68
2022/01/13 10:54:41;;;;;;;;;;;;;;;-145.18;100.00;60484.78;4957094;28;20414;-68
2022/01/13 10:57:23;;;;;;;;;;;;;;;-145.18;100.00;60484.78;4939302;28;20042;-68
2022/01/13 10:59:48;;;;;;;;;;;;;;;-145.18;100.00;60484.78;4955828;28;20575;-68
2022/01/13 11:02:14;;;;;;;;;;;;;;;-145.18;100.00;60484.78;4957904;28;19943;-68
2022/01/13 11:04:39;;;;;;;;;;;;;;;-145.18;100.00;60484.78;4955234;28;19926;-68
2022/01/13 11:07:17;;;;;;;;;;;;;;;-145.18;100.00;60484.78;4939024;29;19919;-68
2022/01/13 11:10:00;;;;;;;;;;;;;;;;;;5115308;27;20041;-68
2022/01/13 11:12:25;;;;;;;;;;;;;;;;;;5117263;28;20057;-68
2022/01/13 11:14:55;;;;;;;;;;;;;;;;;;5116461;28;20307;-68
2022/01/13 11:17:20;;;;;;;;;;;;;;;;;;5116834;28;20436;-68
2022/01/13 11:19:49;;;;;;;;;;;;;;;;;;5106950;28;19920;-68
2022/01/13 11:22:14;;;;;;;;;;;;;;;;;;5109840;28;20026;-68
2022/01/13 11:24:39;;;;;;;;;;;;;;;;;;5110589;28;19915;-68
2022/01/13 11:27:04;;;;;;;;;;;;;;;;;;5116682;28;20000;-68
2022/01/13 11:29:30;;;;;;;;;;;;;;;;;;5106126;28;19958;-68
2022/01/13 11:31:55;;;;;;;;;;;;;;;;;;5117367;28;19929;-68
2022/01/13 11:34:20;;;;;;;;;;;;;;;;;;5113059;28;20378;-68
2022/01/13 11:36:45;;;;;;;;;;;;;;;;;;5117255;28;19926;-68
2022/01/13 11:39:10;;;;;;;;;;;;;;;;;;5108196;28;20006;-68
2022/01/13 11:41:35;;;;;;;;;;;;;;;;;;5116883;28;19950;-68
2022/01/13 11:44:00;;;;;;;;;;;;;;;;;;5112348;28;20395;-68
2022/01/13 11:46:26;;;;;;;;;;;;;;;;;;5115876;28;20387;-68
2022/01/13 11:48:51;;;;;;;;;;;;;;;;;;5113378;28;19919;-68
2022/01/13 11:51:20;;;;;;;;;;;;;;;;;;5114588;28;19915;-68
2022/01/13 11:53:45;;;;;;;;;;;;;;;;;;5114012;28;20363;-68
2022/01/13 11:56:10;;;;;;;;;;;;;;;;;;5116312;28;20277;-68
2022/01/13 11:58:35;;;;;;;;;;;;;;;;;;5114150;28;20193;-68
2022/01/13 12:01:00;;;;;;;;;;;;;;;;;;5115782;28;20176;-68
2022/01/13 12:03:25;;;;;;;;;;;;;;;;;;5110988;28;20154;-68
2022/01/13 12:05:50;;;;;;;;;;;;;;;;;;5095517;28;20145;-68
2022/01/13 12:08:15;;;;;;;;;;;;;;;;;;5097597;28;20318;-68
2022/01/13 12:10:41;;;;;;;;;;;;;;;;;;5107012;28;20526;-68
2022/01/13 12:13:06;;;;;;;;;;;;;;;;;;5107335;28;19951;-68
2022/01/13 12:15:31;;;;;;;;;;;;;;;;;;5094348;28;19916;-68
2022/01/13 12:17:58;;;;;;;;;;;;;;;;;;5098776;28;19911;-68
2022/01/13 12:20:24;;;;;;;;;;;;;;;;;;5094315;28;20003;-68
2022/01/13 12:25:37;;;;;;;;;;;;;;;;;;5036905;28;19913;-68
2022/01/13 12:28:02;;;;;;;;;;;;;;;;;;5037134;28;19916;-68
2022/01/13 12:30:27;;;;;;;;;;;;;;;;;;5038831;28;19975;-67
2022/01/13 12:32:52;;;;;;;;;;;;;;;;;;5038404;28;19920;-67
2022/01/13 12:35:17;;;;;;;;;;;;;;;;;;5035535;28;20081;-67
2022/01/13 12:37:43;;;;;;;;;;;;;;;;;;5038643;28;19953;-67
2022/01/13 12:40:08;;;;;;;;;;;;;;;;;;5036140;28;20109;-67
2022/01/13 12:42:33;;;;;;;;;;;;;;;;;;5037508;28;19969;-68
2022/01/13 12:47:42;;;;;;;;;;;;;;;;;;5038342;28;19963;-67
2022/01/13 12:50:07;;;;;;;;;;;;;;;;;;5037091;28;20440;-67
2022/01/13 12:52:32;;;;;;;;;;;;;;;;;;5037970;28;19925;-68
2022/01/13 12:54:57;;;;;;;;;;;;;;;;;;5036889;28;19924;-68
2022/01/13 12:57:24;;;;;;;;;;;;;;;;;;5038585;28;19915;-67
2022/01/13 12:59:49;;;;;;;;;;;;;;;;;;5036866;28;19920;-67
2022/01/13 13:02:14;;;;;;;;;;;;;;;;;;5045033;28;19916;-67
2022/01/13 13:04:39;;;;;;;;;;;;;;;;;;5063821;28;19916;-68
2022/01/13 13:07:05;;;;;;;;;;;;;;;;;;5089720;28;19913;-67
2022/01/13 13:09:31;;;;;;;;;;;;;;;;;;5087859;28;20044;-67
2022/01/13 13:11:57;;;;;;;;;;;;;;;;;;5101484;28;20362;-67
2022/01/13 13:14:29;;;;;;;;;;;;;;;;;;5088013;28;20374;-67
2022/01/13 13:16:54;;;;;;;;;;;;;;;;;;5092694;28;19919;-67
2022/01/13 13:19:19;;;;;;;;;;;;;;;;;;5083364;28;19920;-67
2022/01/13 13:21:52;;;;;;;;;;;;;;;;;;5089267;28;19965;-67
2022/01/13 13:24:17;;;;;;;;;;;;;;;;;;5090401;28;20039;-68
2022/01/13 13:26:42;;;;;;;;;;;;;;;;;;5082798;28;19995;-68
2022/01/13 13:29:07;;;;;;;;;;;;;;;;;;5080866;28;19924;-68
2022/01/13 13:31:33;;;;;;;;;;;;;;;;;;5070969;28;19984;-67
2022/01/13 13:33:58;;;;;;;;;;;;;;;;;;5085489;28;20327;-67
2022/01/13 13:36:23;;;;;;;;;;;;;;;;;;5094117;28;20383;-69
2022/01/13 13:38:48;;;;;;;;;;;;;;;;;;5087015;28;19963;-67
2022/01/13 13:41:13;;;;;;;;;;;;;;;;;;5095408;28;20368;-67
2022/01/13 13:43:38;;;;;;;;;;;;;;;;;;5087517;28;20426;-67
2022/01/13 13:46:04;;;;;;;;;;;;;;;;;;5091223;28;19912;-67
2022/01/13 13:48:29;;;;;;;;;;;;;;;;;;5064767;28;20400;-67